sensor_id;sensor_type;location;lat;lon;timestamp;P1;durP1;ratioP1;P2;durP2;ratioP2
21243;SDS011;10780;50.942;4.028;2022-08-07T00:01:31;5.15;;;4.20;;
21243;SDS011;10780;50.942;4.028;2022-08-07T00:03:57;5.07;;;3.90;;
21243;SDS011;10780;50.942;4.028;2022-08-07T00:06:23;6.70;;;4.07;;
21243;SDS011;10780;50.942;4.028;2022-08-07T00:08:49;4.38;;;3.70;;
21243;SDS011;10780;50.942;4.028;2022-08-07T00:11:15;4.95;;;3.88;;
21243;SDS011;10780;50.942;4.028;2022-08-07T00:13:41;5.10;;;4.25;;
21243;SDS011;10780;50.942;4.028;2022-08-07T00:16:08;6.53;;;4.25;;
21243;SDS011;10780;50.942;4.028;2022-08-07T00:18:34;7.10;;;4.28;;
21243;SDS011;10780;50.942;4.028;2022-08-07T00:21:01;5.90;;;4.68;;
21243;SDS011;10780;50.942;4.028;2022-08-07T00:23:28;6.68;;;4.45;;
21243;SDS011;10780;50.942;4.028;2022-08-07T00:25:56;8.32;;;4.97;;
21243;SDS011;10780;50.942;4.028;2022-08-07T00:28:22;7.90;;;5.05;;
21243;SDS011;10780;50.942;4.028;2022-08-07T00:30:48;6.25;;;4.43;;
21243;SDS011;10780;50.942;4.028;2022-08-07T00:33:13;6.13;;;4.40;;
21243;SDS011;10780;50.942;4.028;2022-08-07T00:35:39;7.18;;;5.28;;
21243;SDS011;10780;50.942;4.028;2022-08-07T00:38:04;5.95;;;4.38;;
21243;SDS011;10780;50.942;4.028;2022-08-07T00:40:30;5.82;;;5.07;;
21243;SDS011;10780;50.942;4.028;2022-08-07T00:42:56;7.85;;;5.18;;
21243;SDS011;10780;50.942;4.028;2022-08-07T00:45:22;6.88;;;4.38;;
21243;SDS011;10780;50.942;4.028;2022-08-07T00:47:48;5.97;;;4.45;;
21243;SDS011;10780;50.942;4.028;2022-08-07T00:50:14;5.07;;;4.53;;
21243;SDS011;10780;50.942;4.028;2022-08-07T00:52:41;7.82;;;4.50;;
21243;SDS011;10780;50.942;4.028;2022-08-07T00:55:07;6.95;;;4.72;;
21243;SDS011;10780;50.942;4.028;2022-08-07T00:57:33;6.72;;;5.35;;
21243;SDS011;10780;50.942;4.028;2022-08-07T00:59:58;6.97;;;4.68;;
21243;SDS011;10780;50.942;4.028;2022-08-07T01:02:24;7.43;;;5.18;;
21243;SDS011;10780;50.942;4.028;2022-08-07T01:04:50;5.85;;;4.82;;
21243;SDS011;10780;50.942;4.028;2022-08-07T01:07:16;6.00;;;5.20;;
21243;SDS011;10780;50.942;4.028;2022-08-07T01:09:45;5.22;;;4.72;;
21243;SDS011;10780;50.942;4.028;2022-08-07T01:12:11;5.70;;;5.13;;
21243;SDS011;10780;50.942;4.028;2022-08-07T01:14:38;8.90;;;5.10;;
21243;SDS011;10780;50.942;4.028;2022-08-07T01:17:04;8.50;;;5.50;;
21243;SDS011;10780;50.942;4.028;2022-08-07T01:19:29;6.95;;;5.50;;
21243;SDS011;10780;50.942;4.028;2022-08-07T01:21:57;7.00;;;4.93;;
21243;SDS011;10780;50.942;4.028;2022-08-07T01:24:23;5.85;;;4.95;;
21243;SDS011;10780;50.942;4.028;2022-08-07T01:26:51;7.80;;;5.75;;
21243;SDS011;10780;50.942;4.028;2022-08-07T01:29:18;7.47;;;5.35;;
21243;SDS011;10780;50.942;4.028;2022-08-07T01:31:49;6.97;;;5.88;;
21243;SDS011;10780;50.942;4.028;2022-08-07T01:34:16;7.32;;;5.18;;
21243;SDS011;10780;50.942;4.028;2022-08-07T01:36:42;8.00;;;5.68;;
21243;SDS011;10780;50.942;4.028;2022-08-07T01:39:08;7.10;;;5.45;;
21243;SDS011;10780;50.942;4.028;2022-08-07T01:41:33;5.78;;;5.18;;
21243;SDS011;10780;50.942;4.028;2022-08-07T01:44:00;6.15;;;5.55;;
21243;SDS011;10780;50.942;4.028;2022-08-07T01:46:27;8.07;;;5.68;;
21243;SDS011;10780;50.942;4.028;2022-08-07T01:48:52;6.88;;;5.80;;
21243;SDS011;10780;50.942;4.028;2022-08-07T01:51:19;8.27;;;5.53;;
21243;SDS011;10780;50.942;4.028;2022-08-07T01:53:51;7.13;;;5.30;;
21243;SDS011;10780;50.942;4.028;2022-08-07T01:56:23;8.10;;;5.50;;
21243;SDS011;10780;50.942;4.028;2022-08-07T01:58:52;8.98;;;5.60;;
21243;SDS011;10780;50.942;4.028;2022-08-07T02:01:24;8.52;;;5.63;;
21243;SDS011;10780;50.942;4.028;2022-08-07T02:04:02;8.13;;;6.15;;
21243;SDS011;10780;50.942;4.028;2022-08-07T02:06:33;8.43;;;6.28;;
21243;SDS011;10780;50.942;4.028;2022-08-07T02:09:03;8.88;;;6.50;;
21243;SDS011;10780;50.942;4.028;2022-08-07T02:11:32;6.60;;;5.90;;
21243;SDS011;10780;50.942;4.028;2022-08-07T02:14:00;7.80;;;7.00;;
21243;SDS011;10780;50.942;4.028;2022-08-07T02:16:28;8.48;;;6.70;;
21243;SDS011;10780;50.942;4.028;2022-08-07T02:18:55;7.55;;;6.72;;
21243;SDS011;10780;50.942;4.028;2022-08-07T02:21:21;9.25;;;7.20;;
21243;SDS011;10780;50.942;4.028;2022-08-07T02:23:47;9.68;;;8.65;;
21243;SDS011;10780;50.942;4.028;2022-08-07T02:26:14;10.13;;;7.47;;
21243;SDS011;10780;50.942;4.028;2022-08-07T02:28:41;13.68;;;7.13;;
21243;SDS011;10780;50.942;4.028;2022-08-07T02:31:07;9.52;;;7.70;;
21243;SDS011;10780;50.942;4.028;2022-08-07T02:33:35;7.57;;;6.65;;
21243;SDS011;10780;50.942;4.028;2022-08-07T02:36:01;8.38;;;6.70;;
21243;SDS011;10780;50.942;4.028;2022-08-07T02:38:30;7.60;;;6.82;;
21243;SDS011;10780;50.942;4.028;2022-08-07T02:40:59;9.27;;;7.00;;
21243;SDS011;10780;50.942;4.028;2022-08-07T02:43:25;10.70;;;7.38;;
21243;SDS011;10780;50.942;4.028;2022-08-07T02:45:51;9.63;;;7.43;;
21243;SDS011;10780;50.942;4.028;2022-08-07T02:48:18;9.57;;;8.20;;
21243;SDS011;10780;50.942;4.028;2022-08-07T02:50:44;12.10;;;8.55;;
21243;SDS011;10780;50.942;4.028;2022-08-07T02:53:16;12.35;;;7.97;;
21243;SDS011;10780;50.942;4.028;2022-08-07T02:55:45;10.60;;;8.10;;
21243;SDS011;10780;50.942;4.028;2022-08-07T02:58:13;11.57;;;8.68;;
21243;SDS011;10780;50.942;4.028;2022-08-07T03:00:43;12.90;;;8.40;;
21243;SDS011;10780;50.942;4.028;2022-08-07T03:03:11;11.68;;;8.50;;
21243;SDS011;10780;50.942;4.028;2022-08-07T03:05:39;10.43;;;8.63;;
21243;SDS011;10780;50.942;4.028;2022-08-07T03:08:05;11.70;;;9.60;;
21243;SDS011;10780;50.942;4.028;2022-08-07T03:10:32;12.27;;;9.27;;
21243;SDS011;10780;50.942;4.028;2022-08-07T03:12:58;12.75;;;9.95;;
21243;SDS011;10780;50.942;4.028;2022-08-07T03:15:25;12.45;;;9.40;;
21243;SDS011;10780;50.942;4.028;2022-08-07T03:17:52;11.73;;;8.85;;
21243;SDS011;10780;50.942;4.028;2022-08-07T03:20:18;9.90;;;8.32;;
21243;SDS011;10780;50.942;4.028;2022-08-07T03:22:44;11.25;;;8.85;;
21243;SDS011;10780;50.942;4.028;2022-08-07T03:25:11;10.00;;;8.98;;
21243;SDS011;10780;50.942;4.028;2022-08-07T03:27:37;11.40;;;9.13;;
21243;SDS011;10780;50.942;4.028;2022-08-07T03:30:04;11.63;;;8.50;;
21243;SDS011;10780;50.942;4.028;2022-08-07T03:32:32;12.60;;;9.30;;
21243;SDS011;10780;50.942;4.028;2022-08-07T03:35:02;14.60;;;9.85;;
21243;SDS011;10780;50.942;4.028;2022-08-07T03:37:30;11.95;;;8.88;;
21243;SDS011;10780;50.942;4.028;2022-08-07T03:39:58;12.93;;;9.90;;
21243;SDS011;10780;50.942;4.028;2022-08-07T03:42:24;12.68;;;9.57;;
21243;SDS011;10780;50.942;4.028;2022-08-07T03:44:50;16.17;;;11.15;;
21243;SDS011;10780;50.942;4.028;2022-08-07T03:47:16;14.88;;;10.57;;
21243;SDS011;10780;50.942;4.028;2022-08-07T03:49:43;16.33;;;11.52;;
21243;SDS011;10780;50.942;4.028;2022-08-07T03:52:09;14.88;;;10.60;;
21243;SDS011;10780;50.942;4.028;2022-08-07T03:54:36;13.45;;;10.95;;
21243;SDS011;10780;50.942;4.028;2022-08-07T03:57:02;15.85;;;11.25;;
21243;SDS011;10780;50.942;4.028;2022-08-07T03:59:29;17.30;;;12.07;;
21243;SDS011;10780;50.942;4.028;2022-08-07T04:01:56;16.35;;;11.13;;
21243;SDS011;10780;50.942;4.028;2022-08-07T04:04:22;14.13;;;11.60;;
21243;SDS011;10780;50.942;4.028;2022-08-07T04:06:48;18.25;;;11.88;;
21243;SDS011;10780;50.942;4.028;2022-08-07T04:09:15;14.23;;;11.55;;
21243;SDS011;10780;50.942;4.028;2022-08-07T04:11:41;17.27;;;11.88;;
21243;SDS011;10780;50.942;4.028;2022-08-07T04:14:10;16.08;;;11.38;;
21243;SDS011;10780;50.942;4.028;2022-08-07T04:16:36;14.13;;;11.15;;
21243;SDS011;10780;50.942;4.028;2022-08-07T04:19:02;15.73;;;11.50;;
21243;SDS011;10780;50.942;4.028;2022-08-07T04:21:29;14.43;;;11.50;;
21243;SDS011;10780;50.942;4.028;2022-08-07T04:23:56;16.38;;;12.35;;
21243;SDS011;10780;50.942;4.028;2022-08-07T04:26:22;16.38;;;12.52;;
21243;SDS011;10780;50.942;4.028;2022-08-07T04:28:48;14.95;;;11.52;;
21243;SDS011;10780;50.942;4.028;2022-08-07T04:31:13;17.98;;;11.98;;
21243;SDS011;10780;50.942;4.028;2022-08-07T04:33:40;16.35;;;12.05;;
21243;SDS011;10780;50.942;4.028;2022-08-07T04:36:06;18.90;;;13.57;;
21243;SDS011;10780;50.942;4.028;2022-08-07T04:38:33;17.30;;;13.05;;
21243;SDS011;10780;50.942;4.028;2022-08-07T04:41:00;15.57;;;12.05;;
21243;SDS011;10780;50.942;4.028;2022-08-07T04:43:30;16.38;;;12.07;;
21243;SDS011;10780;50.942;4.028;2022-08-07T04:46:10;16.05;;;11.57;;
21243;SDS011;10780;50.942;4.028;2022-08-07T04:51:09;15.43;;;12.23;;
21243;SDS011;10780;50.942;4.028;2022-08-07T04:54:15;16.33;;;11.52;;
21243;SDS011;10780;50.942;4.028;2022-08-07T04:56:58;15.43;;;10.98;;
21243;SDS011;10780;50.942;4.028;2022-08-07T04:59:45;14.55;;;10.82;;
21243;SDS011;10780;50.942;4.028;2022-08-07T05:02:19;16.13;;;11.80;;
21243;SDS011;10780;50.942;4.028;2022-08-07T05:05:02;15.40;;;12.27;;
21243;SDS011;10780;50.942;4.028;2022-08-07T05:07:41;15.82;;;11.77;;
21243;SDS011;10780;50.942;4.028;2022-08-07T05:12:46;14.88;;;11.65;;
21243;SDS011;10780;50.942;4.028;2022-08-07T05:15:18;14.40;;;11.23;;
21243;SDS011;10780;50.942;4.028;2022-08-07T05:17:48;16.30;;;11.57;;
21243;SDS011;10780;50.942;4.028;2022-08-07T05:20:25;14.18;;;11.07;;
21243;SDS011;10780;50.942;4.028;2022-08-07T05:22:55;16.17;;;11.38;;
21243;SDS011;10780;50.942;4.028;2022-08-07T05:25:25;13.55;;;11.40;;
21243;SDS011;10780;50.942;4.028;2022-08-07T05:27:52;15.07;;;11.35;;
21243;SDS011;10780;50.942;4.028;2022-08-07T05:30:19;13.52;;;11.02;;
21243;SDS011;10780;50.942;4.028;2022-08-07T05:32:48;14.40;;;11.38;;
21243;SDS011;10780;50.942;4.028;2022-08-07T05:35:14;14.98;;;10.85;;
21243;SDS011;10780;50.942;4.028;2022-08-07T05:37:42;16.00;;;10.82;;
21243;SDS011;10780;50.942;4.028;2022-08-07T05:40:09;12.98;;;10.63;;
21243;SDS011;10780;50.942;4.028;2022-08-07T05:42:36;14.52;;;11.40;;
21243;SDS011;10780;50.942;4.028;2022-08-07T05:45:03;13.52;;;10.93;;
21243;SDS011;10780;50.942;4.028;2022-08-07T05:47:30;13.05;;;10.68;;
21243;SDS011;10780;50.942;4.028;2022-08-07T05:49:56;14.10;;;11.00;;
21243;SDS011;10780;50.942;4.028;2022-08-07T05:52:22;12.68;;;10.43;;
21243;SDS011;10780;50.942;4.028;2022-08-07T05:54:48;13.85;;;10.60;;
21243;SDS011;10780;50.942;4.028;2022-08-07T05:57:14;15.95;;;10.63;;
21243;SDS011;10780;50.942;4.028;2022-08-07T05:59:40;12.77;;;10.98;;
21243;SDS011;10780;50.942;4.028;2022-08-07T06:02:08;12.93;;;9.93;;
21243;SDS011;10780;50.942;4.028;2022-08-07T06:04:39;12.52;;;10.40;;
21243;SDS011;10780;50.942;4.028;2022-08-07T06:07:09;14.32;;;10.82;;
21243;SDS011;10780;50.942;4.028;2022-08-07T06:09:35;17.35;;;11.43;;
21243;SDS011;10780;50.942;4.028;2022-08-07T06:12:01;13.48;;;10.70;;
21243;SDS011;10780;50.942;4.028;2022-08-07T06:14:27;15.35;;;9.98;;
21243;SDS011;10780;50.942;4.028;2022-08-07T06:16:53;13.50;;;10.43;;
21243;SDS011;10780;50.942;4.028;2022-08-07T06:19:19;11.50;;;10.25;;
21243;SDS011;10780;50.942;4.028;2022-08-07T06:21:45;13.35;;;10.38;;
21243;SDS011;10780;50.942;4.028;2022-08-07T06:24:12;12.32;;;9.93;;
21243;SDS011;10780;50.942;4.028;2022-08-07T06:26:39;10.95;;;9.15;;
21243;SDS011;10780;50.942;4.028;2022-08-07T06:29:05;11.32;;;9.95;;
21243;SDS011;10780;50.942;4.028;2022-08-07T06:31:31;11.55;;;9.55;;
21243;SDS011;10780;50.942;4.028;2022-08-07T06:33:57;13.10;;;9.45;;
21243;SDS011;10780;50.942;4.028;2022-08-07T06:36:22;12.25;;;8.80;;
21243;SDS011;10780;50.942;4.028;2022-08-07T06:38:50;12.88;;;9.95;;
21243;SDS011;10780;50.942;4.028;2022-08-07T06:41:19;13.85;;;9.50;;
21243;SDS011;10780;50.942;4.028;2022-08-07T06:43:49;12.75;;;9.18;;
21243;SDS011;10780;50.942;4.028;2022-08-07T06:46:17;12.05;;;9.55;;
21243;SDS011;10780;50.942;4.028;2022-08-07T06:48:43;11.32;;;9.77;;
21243;SDS011;10780;50.942;4.028;2022-08-07T06:51:09;12.57;;;8.80;;
21243;SDS011;10780;50.942;4.028;2022-08-07T06:53:42;9.90;;;8.45;;
21243;SDS011;10780;50.942;4.028;2022-08-07T06:56:09;11.43;;;8.27;;
21243;SDS011;10780;50.942;4.028;2022-08-07T06:58:37;9.50;;;8.27;;
21243;SDS011;10780;50.942;4.028;2022-08-07T07:01:05;10.57;;;8.27;;
21243;SDS011;10780;50.942;4.028;2022-08-07T07:03:33;11.77;;;8.63;;
21243;SDS011;10780;50.942;4.028;2022-08-07T07:06:01;10.30;;;8.45;;
21243;SDS011;10780;50.942;4.028;2022-08-07T07:08:27;10.60;;;8.55;;
21243;SDS011;10780;50.942;4.028;2022-08-07T07:10:53;10.70;;;8.20;;
21243;SDS011;10780;50.942;4.028;2022-08-07T07:13:24;9.40;;;7.03;;
21243;SDS011;10780;50.942;4.028;2022-08-07T07:16:13;8.65;;;7.75;;
21243;SDS011;10780;50.942;4.028;2022-08-07T07:18:49;9.65;;;7.93;;
21243;SDS011;10780;50.942;4.028;2022-08-07T07:21:21;11.48;;;7.85;;
21243;SDS011;10780;50.942;4.028;2022-08-07T07:23:51;9.80;;;7.10;;
21243;SDS011;10780;50.942;4.028;2022-08-07T07:26:18;9.73;;;6.47;;
21243;SDS011;10780;50.942;4.028;2022-08-07T07:28:47;10.13;;;6.68;;
21243;SDS011;10780;50.942;4.028;2022-08-07T07:31:25;8.73;;;6.30;;
21243;SDS011;10780;50.942;4.028;2022-08-07T07:33:56;8.35;;;6.10;;
21243;SDS011;10780;50.942;4.028;2022-08-07T07:36:25;6.60;;;5.43;;
21243;SDS011;10780;50.942;4.028;2022-08-07T07:38:53;7.18;;;5.22;;
21243;SDS011;10780;50.942;4.028;2022-08-07T07:41:20;6.22;;;4.85;;
21243;SDS011;10780;50.942;4.028;2022-08-07T07:43:49;5.93;;;4.75;;
21243;SDS011;10780;50.942;4.028;2022-08-07T07:46:16;6.68;;;4.90;;
21243;SDS011;10780;50.942;4.028;2022-08-07T07:48:44;10.40;;;6.30;;
21243;SDS011;10780;50.942;4.028;2022-08-07T07:51:12;7.47;;;5.00;;
21243;SDS011;10780;50.942;4.028;2022-08-07T07:53:41;5.95;;;4.50;;
21243;SDS011;10780;50.942;4.028;2022-08-07T07:56:08;5.22;;;4.50;;
21243;SDS011;10780;50.942;4.028;2022-08-07T07:58:36;4.90;;;4.30;;
21243;SDS011;10780;50.942;4.028;2022-08-07T08:01:03;6.78;;;4.40;;
21243;SDS011;10780;50.942;4.028;2022-08-07T08:03:30;6.85;;;4.30;;
21243;SDS011;10780;50.942;4.028;2022-08-07T08:05:59;5.95;;;4.78;;
21243;SDS011;10780;50.942;4.028;2022-08-07T08:08:27;7.43;;;4.15;;
21243;SDS011;10780;50.942;4.028;2022-08-07T08:10:54;7.82;;;4.53;;
21243;SDS011;10780;50.942;4.028;2022-08-07T08:13:21;5.60;;;3.90;;
21243;SDS011;10780;50.942;4.028;2022-08-07T08:15:50;6.05;;;4.22;;
21243;SDS011;10780;50.942;4.028;2022-08-07T08:18:16;5.10;;;3.83;;
21243;SDS011;10780;50.942;4.028;2022-08-07T08:20:43;4.53;;;3.47;;
21243;SDS011;10780;50.942;4.028;2022-08-07T08:23:11;3.85;;;3.47;;
21243;SDS011;10780;50.942;4.028;2022-08-07T08:25:58;5.40;;;3.65;;
21243;SDS011;10780;50.942;4.028;2022-08-07T08:28:45;4.03;;;3.40;;
21243;SDS011;10780;50.942;4.028;2022-08-07T08:31:16;5.45;;;3.90;;
21243;SDS011;10780;50.942;4.028;2022-08-07T08:33:53;5.53;;;3.63;;
21243;SDS011;10780;50.942;4.028;2022-08-07T08:36:20;6.47;;;4.60;;
21243;SDS011;10780;50.942;4.028;2022-08-07T08:38:50;6.05;;;3.67;;
21243;SDS011;10780;50.942;4.028;2022-08-07T08:44:16;5.40;;;3.38;;
21243;SDS011;10780;50.942;4.028;2022-08-07T08:53:01;8.00;;;4.00;;
21243;SDS011;10780;50.942;4.028;2022-08-07T08:55:37;4.65;;;3.50;;
21243;SDS011;10780;50.942;4.028;2022-08-07T08:58:13;5.75;;;4.70;;
21243;SDS011;10780;50.942;4.028;2022-08-07T09:00:55;7.20;;;4.45;;
21243;SDS011;10780;50.942;4.028;2022-08-07T09:03:33;8.05;;;4.15;;
21243;SDS011;10780;50.942;4.028;2022-08-07T09:06:39;5.85;;;4.30;;
21243;SDS011;10780;50.942;4.028;2022-08-07T09:09:23;5.07;;;4.22;;
21243;SDS011;10780;50.942;4.028;2022-08-07T09:15:03;6.15;;;4.05;;
21243;SDS011;10780;50.942;4.028;2022-08-07T09:20:26;5.75;;;4.75;;
21243;SDS011;10780;50.942;4.028;2022-08-07T09:23:08;6.50;;;4.63;;
21243;SDS011;10780;50.942;4.028;2022-08-07T09:25:57;6.70;;;4.97;;
21243;SDS011;10780;50.942;4.028;2022-08-07T09:28:51;4.60;;;4.05;;
21243;SDS011;10780;50.942;4.028;2022-08-07T09:31:21;7.13;;;4.88;;
21243;SDS011;10780;50.942;4.028;2022-08-07T09:36:34;4.90;;;3.70;;
21243;SDS011;10780;50.942;4.028;2022-08-07T09:39:18;6.00;;;4.32;;
21243;SDS011;10780;50.942;4.028;2022-08-07T09:41:45;4.50;;;3.92;;
21243;SDS011;10780;50.942;4.028;2022-08-07T09:44:29;8.10;;;4.25;;
21243;SDS011;10780;50.942;4.028;2022-08-07T09:52:32;5.35;;;4.00;;
21243;SDS011;10780;50.942;4.028;2022-08-07T10:00:13;4.95;;;4.32;;
21243;SDS011;10780;50.942;4.028;2022-08-07T10:19:53;5.93;;;4.53;;
21243;SDS011;10780;50.942;4.028;2022-08-07T10:22:58;5.45;;;3.63;;
21243;SDS011;10780;50.942;4.028;2022-08-07T10:25:37;4.53;;;3.60;;
21243;SDS011;10780;50.942;4.028;2022-08-07T10:36:58;7.50;;;3.88;;
21243;SDS011;10780;50.942;4.028;2022-08-07T10:42:43;3.70;;;2.78;;
21243;SDS011;10780;50.942;4.028;2022-08-07T10:50:37;3.40;;;2.72;;
21243;SDS011;10780;50.942;4.028;2022-08-07T10:53:10;3.45;;;2.83;;
21243;SDS011;10780;50.942;4.028;2022-08-07T10:56:08;3.33;;;2.90;;
21243;SDS011;10780;50.942;4.028;2022-08-07T10:58:41;3.67;;;2.90;;
21243;SDS011;10780;50.942;4.028;2022-08-07T11:07:21;5.93;;;2.63;;
21243;SDS011;10780;50.942;4.028;2022-08-07T11:10:02;4.32;;;2.55;;
21243;SDS011;10780;50.942;4.028;2022-08-07T11:12:35;5.07;;;3.00;;
21243;SDS011;10780;50.942;4.028;2022-08-07T11:15:19;6.78;;;3.10;;
21243;SDS011;10780;50.942;4.028;2022-08-07T11:17:48;4.05;;;2.80;;
21243;SDS011;10780;50.942;4.028;2022-08-07T11:23:35;6.32;;;2.58;;
21243;SDS011;10780;50.942;4.028;2022-08-07T11:26:12;3.20;;;2.80;;
21243;SDS011;10780;50.942;4.028;2022-08-07T11:29:06;4.22;;;2.67;;
21243;SDS011;10780;50.942;4.028;2022-08-07T11:31:42;3.70;;;2.70;;
21243;SDS011;10780;50.942;4.028;2022-08-07T11:34:58;5.85;;;2.67;;
21243;SDS011;10780;50.942;4.028;2022-08-07T11:37:24;3.55;;;2.55;;
21243;SDS011;10780;50.942;4.028;2022-08-07T11:54:05;4.05;;;2.40;;
21243;SDS011;10780;50.942;4.028;2022-08-07T12:02:29;4.45;;;2.75;;
21243;SDS011;10780;50.942;4.028;2022-08-07T12:08:15;2.83;;;2.30;;
21243;SDS011;10780;50.942;4.028;2022-08-07T12:10:47;2.40;;;2.20;;
21243;SDS011;10780;50.942;4.028;2022-08-07T12:13:22;5.20;;;3.10;;
21243;SDS011;10780;50.942;4.028;2022-08-07T12:15:57;4.97;;;2.38;;
21243;SDS011;10780;50.942;4.028;2022-08-07T12:18:34;3.45;;;2.30;;
21243;SDS011;10780;50.942;4.028;2022-08-07T12:21:13;3.80;;;2.40;;
21243;SDS011;10780;50.942;4.028;2022-08-07T12:24:06;2.60;;;2.25;;
21243;SDS011;10780;50.942;4.028;2022-08-07T12:35:06;2.22;;;2.03;;
21243;SDS011;10780;50.942;4.028;2022-08-07T12:37:35;2.55;;;2.10;;
21243;SDS011;10780;50.942;4.028;2022-08-07T12:40:04;3.25;;;2.00;;
21243;SDS011;10780;50.942;4.028;2022-08-07T12:42:34;2.70;;;1.88;;
21243;SDS011;10780;50.942;4.028;2022-08-07T12:45:12;3.83;;;2.17;;
21243;SDS011;10780;50.942;4.028;2022-08-07T12:50:52;3.75;;;2.22;;
21243;SDS011;10780;50.942;4.028;2022-08-07T12:53:34;2.58;;;1.98;;
21243;SDS011;10780;50.942;4.028;2022-08-07T12:56:24;2.70;;;1.92;;
21243;SDS011;10780;50.942;4.028;2022-08-07T12:58:53;3.13;;;1.80;;
21243;SDS011;10780;50.942;4.028;2022-08-07T13:23:47;2.50;;;1.30;;
21243;SDS011;10780;50.942;4.028;2022-08-07T13:31:32;1.40;;;1.30;;
21243;SDS011;10780;50.942;4.028;2022-08-07T13:39:58;1.30;;;1.20;;
21243;SDS011;10780;50.942;4.028;2022-08-07T13:42:47;3.67;;;1.20;;
21243;SDS011;10780;50.942;4.028;2022-08-07T13:45:14;2.55;;;1.27;;
21243;SDS011;10780;50.942;4.028;2022-08-07T13:47:42;1.45;;;1.35;;
21243;SDS011;10780;50.942;4.028;2022-08-07T13:50:11;2.65;;;1.67;;
21243;SDS011;10780;50.942;4.028;2022-08-07T13:52:38;3.10;;;1.88;;
21243;SDS011;10780;50.942;4.028;2022-08-07T13:55:12;3.42;;;1.73;;
21243;SDS011;10780;50.942;4.028;2022-08-07T13:57:40;2.10;;;1.73;;
21243;SDS011;10780;50.942;4.028;2022-08-07T14:00:08;6.68;;;2.00;;
21243;SDS011;10780;50.942;4.028;2022-08-07T14:02:34;2.72;;;1.98;;
21243;SDS011;10780;50.942;4.028;2022-08-07T14:05:03;2.40;;;2.03;;
21243;SDS011;10780;50.942;4.028;2022-08-07T14:07:33;4.53;;;2.25;;
21243;SDS011;10780;50.942;4.028;2022-08-07T14:10:12;2.00;;;1.77;;
21243;SDS011;10780;50.942;4.028;2022-08-07T14:12:40;3.45;;;1.88;;
21243;SDS011;10780;50.942;4.028;2022-08-07T14:15:23;4.82;;;2.17;;
21243;SDS011;10780;50.942;4.028;2022-08-07T14:18:03;2.45;;;1.80;;
21243;SDS011;10780;50.942;4.028;2022-08-07T14:20:32;2.20;;;2.00;;
21243;SDS011;10780;50.942;4.028;2022-08-07T14:23:04;2.55;;;1.83;;
21243;SDS011;10780;50.942;4.028;2022-08-07T14:25:33;3.55;;;2.00;;
21243;SDS011;10780;50.942;4.028;2022-08-07T14:28:02;3.10;;;1.70;;
21243;SDS011;10780;50.942;4.028;2022-08-07T14:30:31;2.17;;;1.90;;
21243;SDS011;10780;50.942;4.028;2022-08-07T14:32:59;2.97;;;1.60;;
21243;SDS011;10780;50.942;4.028;2022-08-07T14:35:28;1.77;;;1.60;;
21243;SDS011;10780;50.942;4.028;2022-08-07T14:37:56;4.00;;;2.13;;
21243;SDS011;10780;50.942;4.028;2022-08-07T14:40:23;2.85;;;2.00;;
21243;SDS011;10780;50.942;4.028;2022-08-07T14:43:02;2.20;;;1.85;;
21243;SDS011;10780;50.942;4.028;2022-08-07T14:45:31;1.75;;;1.58;;
21243;SDS011;10780;50.942;4.028;2022-08-07T14:48:06;2.85;;;1.65;;
21243;SDS011;10780;50.942;4.028;2022-08-07T14:50:33;2.40;;;1.75;;
21243;SDS011;10780;50.942;4.028;2022-08-07T14:53:05;4.50;;;1.75;;
21243;SDS011;10780;50.942;4.028;2022-08-07T14:55:32;2.40;;;2.03;;
21243;SDS011;10780;50.942;4.028;2022-08-07T14:57:58;3.00;;;1.70;;
21243;SDS011;10780;50.942;4.028;2022-08-07T15:00:28;2.42;;;1.50;;
21243;SDS011;10780;50.942;4.028;2022-08-07T15:02:56;3.05;;;2.25;;
21243;SDS011;10780;50.942;4.028;2022-08-07T15:05:23;4.82;;;2.08;;
21243;SDS011;10780;50.942;4.028;2022-08-07T15:07:51;2.95;;;1.88;;
21243;SDS011;10780;50.942;4.028;2022-08-07T15:10:22;1.70;;;1.60;;
21243;SDS011;10780;50.942;4.028;2022-08-07T15:12:51;2.17;;;1.65;;
21243;SDS011;10780;50.942;4.028;2022-08-07T15:15:34;1.77;;;1.50;;
21243;SDS011;10780;50.942;4.028;2022-08-07T15:18:04;2.47;;;2.00;;
21243;SDS011;10780;50.942;4.028;2022-08-07T15:20:34;2.97;;;1.75;;
21243;SDS011;10780;50.942;4.028;2022-08-07T15:23:05;3.90;;;1.88;;
21243;SDS011;10780;50.942;4.028;2022-08-07T15:25:36;2.15;;;1.85;;
21243;SDS011;10780;50.942;4.028;2022-08-07T15:28:05;2.30;;;1.70;;
21243;SDS011;10780;50.942;4.028;2022-08-07T15:30:33;2.03;;;1.83;;
21243;SDS011;10780;50.942;4.028;2022-08-07T15:33:01;2.00;;;1.80;;
21243;SDS011;10780;50.942;4.028;2022-08-07T15:35:28;2.50;;;2.30;;
21243;SDS011;10780;50.942;4.028;2022-08-07T15:37:57;2.20;;;1.88;;
21243;SDS011;10780;50.942;4.028;2022-08-07T15:40:26;3.90;;;2.55;;
21243;SDS011;10780;50.942;4.028;2022-08-07T15:45:35;3.13;;;2.10;;
21243;SDS011;10780;50.942;4.028;2022-08-07T15:48:26;2.10;;;1.90;;
21243;SDS011;10780;50.942;4.028;2022-08-07T15:50:54;3.65;;;2.08;;
21243;SDS011;10780;50.942;4.028;2022-08-07T15:53:55;2.90;;;2.00;;
21243;SDS011;10780;50.942;4.028;2022-08-07T15:56:15;3.42;;;2.05;;
21243;SDS011;10780;50.942;4.028;2022-08-07T16:01:14;4.05;;;1.73;;
21243;SDS011;10780;50.942;4.028;2022-08-07T16:03:43;3.00;;;2.15;;
21243;SDS011;10780;50.942;4.028;2022-08-07T16:06:12;2.00;;;1.65;;
21243;SDS011;10780;50.942;4.028;2022-08-07T16:08:40;3.53;;;1.90;;
21243;SDS011;10780;50.942;4.028;2022-08-07T16:11:43;3.03;;;2.00;;
21243;SDS011;10780;50.942;4.028;2022-08-07T16:23:15;2.70;;;2.15;;
21243;SDS011;10780;50.942;4.028;2022-08-07T16:29:05;2.10;;;1.88;;
21243;SDS011;10780;50.942;4.028;2022-08-07T16:32:02;3.53;;;2.05;;
21243;SDS011;10780;50.942;4.028;2022-08-07T16:34:37;1.88;;;1.67;;
21243;SDS011;10780;50.942;4.028;2022-08-07T16:40:12;2.55;;;2.15;;
21243;SDS011;10780;50.942;4.028;2022-08-07T16:54:22;4.68;;;2.20;;
21243;SDS011;10780;50.942;4.028;2022-08-07T17:04:54;2.53;;;2.00;;
21243;SDS011;10780;50.942;4.028;2022-08-07T17:07:32;3.53;;;2.33;;
21243;SDS011;10780;50.942;4.028;2022-08-07T17:15:50;3.80;;;3.05;;
21243;SDS011;10780;50.942;4.028;2022-08-07T17:21:21;5.68;;;2.42;;
21243;SDS011;10780;50.942;4.028;2022-08-07T17:24:20;4.18;;;2.10;;
21243;SDS011;10780;50.942;4.028;2022-08-07T17:32:42;3.95;;;2.50;;
21243;SDS011;10780;50.942;4.028;2022-08-07T17:35:18;2.95;;;2.63;;
21243;SDS011;10780;50.942;4.028;2022-08-07T17:40:37;2.67;;;2.10;;
21243;SDS011;10780;50.942;4.028;2022-08-07T17:43:30;4.05;;;2.85;;
21243;SDS011;10780;50.942;4.028;2022-08-07T17:48:54;3.55;;;2.67;;
21243;SDS011;10780;50.942;4.028;2022-08-07T17:54:27;5.22;;;2.55;;
21243;SDS011;10780;50.942;4.028;2022-08-07T17:57:05;4.57;;;2.60;;
21243;SDS011;10780;50.942;4.028;2022-08-07T17:59:53;5.00;;;2.63;;
21243;SDS011;10780;50.942;4.028;2022-08-07T18:02:46;2.88;;;2.58;;
21243;SDS011;10780;50.942;4.028;2022-08-07T18:08:14;4.32;;;2.63;;
21243;SDS011;10780;50.942;4.028;2022-08-07T18:10:48;6.53;;;2.65;;
21243;SDS011;10780;50.942;4.028;2022-08-07T18:16:16;2.70;;;2.50;;
21243;SDS011;10780;50.942;4.028;2022-08-07T18:18:50;5.88;;;2.55;;
21243;SDS011;10780;50.942;4.028;2022-08-07T18:21:28;5.18;;;2.80;;
21243;SDS011;10780;50.942;4.028;2022-08-07T18:24:02;3.60;;;2.67;;
21243;SDS011;10780;50.942;4.028;2022-08-07T18:29:41;7.20;;;2.83;;
21243;SDS011;10780;50.942;4.028;2022-08-07T18:32:55;6.22;;;3.03;;
21243;SDS011;10780;50.942;4.028;2022-08-07T18:38:21;3.00;;;2.70;;
21243;SDS011;10780;50.942;4.028;2022-08-07T18:55:53;5.05;;;3.15;;
21243;SDS011;10780;50.942;4.028;2022-08-07T19:01:44;3.88;;;3.38;;
21243;SDS011;10780;50.942;4.028;2022-08-07T19:04:19;6.10;;;3.53;;